Time;durP1;ratioP1;P1;durP2;ratioP2;P2;SDS_P1;SDS_P2;PMS_P1;PMS_P2;Temp;Humidity;BMP_temperature;BMP_pressure;BME280_temperature;BME280_humidity;BME280_pressure;Samples;Min_cycle;Max_cycle;Signal;HPM_P1;HPM_P2
2021/10/27 00:02:17;;;;;;;3.15;2.33;;;;;;;;;;4893010;29;20672;-84
2021/10/27 00:04:43;;;;;;;2.65;2.20;;;;;;;;;;4889139;29;20029;-84
2021/10/27 00:07:09;;;;;;;3.22;1.90;;;;;;;;;;4893629;29;20135;-84
2021/10/27 00:09:36;;;;;;;6.47;2.10;;;;;;;;;;4875634;29;21004;-84
2021/10/27 00:12:03;;;;;;;7.65;3.03;;;;;;;;;;4877432;29;20426;-84
2021/10/27 00:14:29;;;;;;;7.15;2.42;;;;;;;;;;4882765;29;20075;-85
2021/10/27 00:16:54;;;;;;;7.72;3.20;;;;;;;;;;4892619;29;20064;-84
2021/10/27 00:19:20;;;;;;;4.28;2.50;;;;;;;;;;4892376;29;20548;-84
2021/10/27 00:21:47;;;;;;;5.10;2.75;;;;;;;;;;4896234;29;20037;-84
2021/10/27 00:24:13;;;;;;;3.45;2.20;;;;;;;;;;4880088;29;20135;-84
2021/10/27 00:26:39;;;;;;;2.28;1.55;;;;;;;;;;4899487;29;20055;-85
2021/10/27 00:29:05;;;;;;;3.38;2.33;;;;;;;;;;4892507;29;20080;-85
2021/10/27 00:31:31;;;;;;;3.70;1.90;;;;;;;;;;4895987;29;20036;-84
2021/10/27 00:33:57;;;;;;;2.47;1.50;;;;;;;;;;4891535;29;20514;-85
2021/10/27 00:36:23;;;;;;;2.17;1.50;;;;;;;;;;4895180;29;20103;-84
2021/10/27 00:38:49;;;;;;;6.32;1.55;;;;;;;;;;4897104;29;20092;-84
2021/10/27 00:41:15;;;;;;;4.10;2.25;;;;;;;;;;4891054;29;20528;-83
2021/10/27 00:43:41;;;;;;;6.15;3.50;;;;;;;;;;4890092;29;20132;-84
2021/10/27 00:46:17;;;;;;;5.15;2.42;;;;;;;;;;4886419;29;20057;-86
2021/10/27 00:48:42;;;;;;;5.45;2.10;;;;;;;;;;4894503;29;20033;-85
2021/10/27 00:51:09;;;;;;;5.13;3.03;;;;;;;;;;4894425;29;20545;-84
2021/10/27 00:53:35;;;;;;;7.28;2.88;;;;;;;;;;4897128;29;20064;-84
2021/10/27 00:56:01;;;;;;;4.90;3.03;;;;;;;;;;4896011;29;20029;-85
2021/10/27 00:58:27;;;;;;;6.43;1.95;;;;;;;;;;4890408;29;20096;-84
2021/10/27 01:00:53;;;;;;;4.53;3.03;;;;;;;;;;4893001;29;20045;-84
2021/10/27 01:03:19;;;;;;;7.97;2.55;;;;;;;;;;4880733;29;20048;-84
2021/10/27 01:05:45;;;;;;;7.60;3.53;;;;;;;;;;4896923;29;20108;-84
2021/10/27 01:08:11;;;;;;;5.38;3.00;;;;;;;;;;4885390;29;20081;-84
2021/10/27 01:10:37;;;;;;;5.65;2.85;;;;;;;;;;4886173;29;20029;-84
2021/10/27 01:13:03;;;;;;;9.50;2.08;;;;;;;;;;4877734;29;20041;-84
2021/10/27 01:15:29;;;;;;;4.70;2.83;;;;;;;;;;4894041;29;20040;-84
2021/10/27 01:17:56;;;;;;;6.18;3.70;;;;;;;;;;4879683;29;20029;-84
2021/10/27 01:20:22;;;;;;;7.75;3.85;;;;;;;;;;4890484;29;20076;-84
2021/10/27 01:22:48;;;;;;;8.77;2.90;;;;;;;;;;4889952;29;20060;-84
2021/10/27 01:25:14;;;;;;;8.73;4.25;;;;;;;;;;4890466;29;20037;-84
2021/10/27 01:27:47;;;;;;;9.73;3.47;;;;;;;;;;4895972;29;20028;-84
2021/10/27 01:30:14;;;;;;;8.18;3.78;;;;;;;;;;4895394;29;20029;-85
2021/10/27 01:32:40;;;;;;;10.55;2.83;;;;;;;;;;4890606;29;20032;-84
2021/10/27 01:35:07;;;;;;;15.70;4.60;;;;;;;;;;4891630;29;20040;-84
2021/10/27 01:37:34;;;;;;;6.30;2.45;;;;;;;;;;4877930;29;20021;-84
2021/10/27 01:40:00;;;;;;;10.05;3.05;;;;;;;;;;4891338;29;20032;-83
2021/10/27 01:42:26;;;;;;;3.95;2.10;;;;;;;;;;4879122;29;20039;-85
2021/10/27 01:44:52;;;;;;;8.10;2.58;;;;;;;;;;4896060;29;20024;-84
2021/10/27 01:47:19;;;;;;;8.52;3.00;;;;;;;;;;4884039;29;20021;-84
2021/10/27 01:49:45;;;;;;;4.82;2.80;;;;;;;;;;4889739;29;20103;-84
2021/10/27 01:52:11;;;;;;;9.93;3.90;;;;;;;;;;4890323;29;20065;-84
2021/10/27 01:54:39;;;;;;;8.35;2.63;;;;;;;;;;4874887;29;20051;-85
2021/10/27 01:57:07;;;;;;;5.38;2.17;;;;;;;;;;4894534;29;20099;-85
2021/10/27 01:59:33;;;;;;;5.68;1.90;;;;;;;;;;4894868;29;20562;-84
2021/10/27 02:01:59;;;;;;;6.00;3.25;;;;;;;;;;4889830;29;20037;-84
2021/10/27 02:04:25;;;;;;;3.67;2.67;;;;;;;;;;4889863;29;20486;-85
2021/10/27 02:06:51;;;;;;;9.38;2.50;;;;;;;;;;4891325;29;20043;-84
2021/10/27 02:09:18;;;;;;;9.27;2.83;;;;;;;;;;4892619;29;20045;-84
2021/10/27 02:11:44;;;;;;;4.78;1.98;;;;;;;;;;4894855;29;20044;-85
2021/10/27 02:14:10;;;;;;;4.07;3.22;;;;;;;;;;4893721;29;20510;-84
2021/10/27 02:16:36;;;;;;;7.30;2.80;;;;;;;;;;4894212;29;20443;-84
2021/10/27 02:19:04;;;;;;;5.45;2.55;;;;;;;;;;4890102;29;20064;-84
2021/10/27 02:21:30;;;;;;;4.85;2.35;;;;;;;;;;4895945;29;20096;-85
2021/10/27 02:23:56;;;;;;;6.60;2.58;;;;;;;;;;4877750;29;20455;-85
2021/10/27 02:26:22;;;;;;;6.18;2.90;;;;;;;;;;4889934;29;20060;-84
2021/10/27 02:28:48;;;;;;;4.63;2.35;;;;;;;;;;4893640;29;20036;-84
2021/10/27 02:31:15;;;;;;;3.60;2.25;;;;;;;;;;4888292;29;20126;-85
2021/10/27 02:33:41;;;;;;;4.57;2.60;;;;;;;;;;4874445;29;20132;-85
2021/10/27 02:36:07;;;;;;;4.82;2.38;;;;;;;;;;4876275;29;20029;-84
2021/10/27 02:38:33;;;;;;;3.05;2.50;;;;;;;;;;4894357;29;20029;-84
2021/10/27 02:40:59;;;;;;;9.82;2.72;;;;;;;;;;4888302;29;20115;-84
2021/10/27 02:43:25;;;;;;;7.05;3.22;;;;;;;;;;4892914;29;20037;-85
2021/10/27 02:45:51;;;;;;;4.65;2.47;;;;;;;;;;4890382;29;20085;-85
2021/10/27 02:48:17;;;;;;;6.57;2.17;;;;;;;;;;4892159;29;20473;-84
2021/10/27 02:50:43;;;;;;;16.43;3.13;;;;;;;;;;4855140;29;1171115;-83
2021/10/27 02:53:10;;;;;;;7.00;2.13;;;;;;;;;;4881099;29;20044;-84
2021/10/27 02:55:36;;;;;;;3.17;1.95;;;;;;;;;;4883000;29;20539;-84
2021/10/27 02:58:02;;;;;;;7.07;2.45;;;;;;;;;;4886563;29;20056;-85
2021/10/27 03:00:28;;;;;;;9.77;2.83;;;;;;;;;;4893898;29;20032;-84
2021/10/27 03:02:54;;;;;;;5.20;2.38;;;;;;;;;;4891268;29;20096;-84
2021/10/27 03:05:21;;;;;;;6.53;2.38;;;;;;;;;;4874222;29;20087;-85
2021/10/27 03:07:50;;;;;;;5.38;1.70;;;;;;;;;;4888320;29;20024;-83
2021/10/27 03:10:17;;;;;;;4.20;2.03;;;;;;;;;;4889901;29;20041;-84
2021/10/27 03:12:43;;;;;;;6.35;2.03;;;;;;;;;;4891884;29;20508;-85
2021/10/27 03:15:10;;;;;;;7.15;2.85;;;;;;;;;;4890880;29;20040;-84
2021/10/27 03:17:37;;;;;;;4.30;2.53;;;;;;;;;;4875541;29;20037;-85
2021/10/27 03:20:03;;;;;;;4.43;1.88;;;;;;;;;;4889697;29;20035;-85
2021/10/27 03:22:29;;;;;;;6.50;3.88;;;;;;;;;;4875816;29;20039;-84
2021/10/27 03:24:55;;;;;;;4.40;2.55;;;;;;;;;;4893228;29;20044;-84
2021/10/27 03:27:21;;;;;;;2.72;1.92;;;;;;;;;;4893813;29;20029;-84
2021/10/27 03:29:47;;;;;;;3.67;2.05;;;;;;;;;;4894648;29;20039;-84
2021/10/27 03:32:13;;;;;;;3.22;1.60;;;;;;;;;;4888218;29;20032;-84
2021/10/27 03:34:40;;;;;;;4.18;1.83;;;;;;;;;;4889538;29;20044;-84
2021/10/27 03:37:09;;;;;;;2.70;1.75;;;;;;;;;;4893918;29;20035;-84
2021/10/27 03:39:35;;;;;;;3.10;2.00;;;;;;;;;;4893713;29;20036;-84
2021/10/27 03:42:01;;;;;;;3.65;2.08;;;;;;;;;;4893722;29;20395;-84
2021/10/27 03:44:27;;;;;;;3.35;1.90;;;;;;;;;;4889649;29;20033;-84
2021/10/27 03:46:54;;;;;;;2.85;1.48;;;;;;;;;;4894184;29;20163;-85
2021/10/27 03:49:20;;;;;;;2.30;1.60;;;;;;;;;;4893196;29;20037;-84
2021/10/27 03:51:47;;;;;;;4.43;1.65;;;;;;;;;;4894806;29;20055;-84
2021/10/27 03:54:13;;;;;;;6.10;1.88;;;;;;;;;;4895955;29;20040;-84
2021/10/27 03:56:39;;;;;;;6.22;1.35;;;;;;;;;;4894114;29;20029;-84
2021/10/27 03:59:05;;;;;;;3.33;1.45;;;;;;;;;;4884661;29;20048;-85
2021/10/27 04:01:31;;;;;;;4.22;1.48;;;;;;;;;;4885382;29;20050;-85
2021/10/27 04:03:57;;;;;;;3.72;1.95;;;;;;;;;;4897366;29;20096;-84
2021/10/27 04:06:23;;;;;;;4.57;1.52;;;;;;;;;;4880542;29;20029;-84
2021/10/27 04:08:49;;;;;;;4.90;1.98;;;;;;;;;;4897789;29;20580;-85
2021/10/27 04:11:15;;;;;;;5.00;2.10;;;;;;;;;;4886166;29;20117;-85
2021/10/27 04:13:41;;;;;;;4.40;2.35;;;;;;;;;;4886675;29;20192;-83
2021/10/27 04:16:07;;;;;;;3.53;2.53;;;;;;;;;;4896274;29;20063;-84
2021/10/27 04:18:33;;;;;;;5.53;2.00;;;;;;;;;;4882597;29;20060;-84
2021/10/27 04:20:59;;;;;;;4.88;2.53;;;;;;;;;;4893724;29;20027;-85
2021/10/27 04:23:25;;;;;;;5.32;2.50;;;;;;;;;;4892783;29;20067;-85
2021/10/27 04:25:51;;;;;;;10.40;2.97;;;;;;;;;;4892950;29;20036;-83
2021/10/27 04:28:17;;;;;;;12.13;2.80;;;;;;;;;;4896934;29;20458;-84
2021/10/27 04:30:43;;;;;;;6.00;2.45;;;;;;;;;;4898308;29;20108;-85
2021/10/27 04:33:15;;;;;;;4.20;2.45;;;;;;;;;;4898974;29;20068;-84
2021/10/27 04:35:41;;;;;;;7.75;2.72;;;;;;;;;;4895935;29;20124;-84
2021/10/27 04:38:07;;;;;;;4.68;2.05;;;;;;;;;;4891857;29;20468;-85
2021/10/27 04:40:33;;;;;;;5.80;1.70;;;;;;;;;;4877333;29;20032;-85
2021/10/27 04:42:59;;;;;;;3.15;1.92;;;;;;;;;;4892559;29;20057;-85
2021/10/27 04:45:25;;;;;;;2.72;1.25;;;;;;;;;;4896828;29;20063;-84
2021/10/27 04:47:51;;;;;;;5.10;2.60;;;;;;;;;;4893133;29;20029;-84
2021/10/27 04:50:18;;;;;;;3.97;2.05;;;;;;;;;;4896471;29;20379;-84
2021/10/27 04:52:44;;;;;;;3.88;1.90;;;;;;;;;;4891948;29;20075;-84
2021/10/27 04:55:10;;;;;;;5.70;2.65;;;;;;;;;;4891968;29;20059;-84
2021/10/27 04:57:36;;;;;;;2.88;1.40;;;;;;;;;;4889677;29;20044;-89
2021/10/27 05:00:02;;;;;;;3.95;2.40;;;;;;;;;;4890954;29;20111;-85
2021/10/27 05:02:28;;;;;;;4.78;2.60;;;;;;;;;;4887004;29;20140;-84
2021/10/27 05:04:55;;;;;;;4.65;2.10;;;;;;;;;;4886854;29;20056;-85
2021/10/27 05:07:21;;;;;;;4.82;2.25;;;;;;;;;;4874800;29;20108;-85
2021/10/27 05:09:47;;;;;;;5.32;3.10;;;;;;;;;;4892400;29;20060;-85
2021/10/27 05:12:13;;;;;;;3.47;2.13;;;;;;;;;;4889039;29;20061;-85
2021/10/27 05:14:41;;;;;;;3.95;2.15;;;;;;;;;;4895115;29;20041;-85
2021/10/27 05:17:10;;;;;;;;;;;;;;;;;;4892611;29;20044;-86
2021/10/27 05:19:39;;;;;;;6.90;2.80;;;;;;;;;;4894768;29;19954;-84
2021/10/27 05:22:06;;;;;;;3.00;2.05;;;;;;;;;;4894411;29;20044;-85
2021/10/27 05:24:32;;;;;;;8.88;2.40;;;;;;;;;;4894854;29;20076;-85
2021/10/27 05:26:58;;;;;;;7.65;2.30;;;;;;;;;;4894624;29;20037;-85
2021/10/27 05:29:24;;;;;;;6.57;2.20;;;;;;;;;;4887239;29;20584;-85
2021/10/27 05:31:50;;;;;;;4.93;2.28;;;;;;;;;;4876242;29;20507;-85
2021/10/27 05:34:16;;;;;;;7.88;2.45;;;;;;;;;;4874123;29;20045;-85
2021/10/27 05:36:43;;;;;;;2.95;2.13;;;;;;;;;;4876738;29;20040;-85
2021/10/27 05:39:11;;;;;;;5.45;2.70;;;;;;;;;;4879268;29;20071;-84
2021/10/27 05:41:40;;;;;;;7.05;2.85;;;;;;;;;;4895294;29;20040;-85
2021/10/27 05:44:06;;;;;;;3.65;2.05;;;;;;;;;;4876180;29;20033;-85
2021/10/27 05:46:32;;;;;;;6.28;1.70;;;;;;;;;;4894211;29;20028;-85
2021/10/27 05:49:06;;;;;;;5.82;2.70;;;;;;;;;;4875181;29;20112;-85
2021/10/27 05:51:53;;;;;;;5.80;3.00;;;;;;;;;;4879056;29;20144;-86
2021/10/27 05:57:04;;;;;;;3.75;1.90;;;;;;;;;;4891407;29;20056;-84
2021/10/27 05:59:30;;;;;;;3.33;2.05;;;;;;;;;;4887574;29;20036;-86
2021/10/27 06:01:56;;;;;;;6.50;2.33;;;;;;;;;;4891374;29;20037;-86
2021/10/27 06:04:22;;;;;;;9.18;3.78;;;;;;;;;;4892910;29;20541;-87
2021/10/27 06:06:48;;;;;;;5.38;3.72;;;;;;;;;;4894617;29;20466;-86
2021/10/27 06:09:15;;;;;;;6.18;2.20;;;;;;;;;;4879115;29;20052;-87
2021/10/27 06:11:42;;;;;;;8.70;3.40;;;;;;;;;;4894081;29;20047;-84
2021/10/27 06:14:09;;;;;;;4.07;2.42;;;;;;;;;;4882509;29;20053;-85
2021/10/27 06:16:35;;;;;;;7.90;3.05;;;;;;;;;;4886089;29;20036;-85
2021/10/27 06:19:01;;;;;;;8.65;3.22;;;;;;;;;;4893042;29;20033;-86
2021/10/27 06:21:27;;;;;;;5.45;3.25;;;;;;;;;;4894308;29;20040;-87
2021/10/27 06:23:53;;;;;;;9.38;3.55;;;;;;;;;;4894262;29;20056;-85
2021/10/27 06:26:23;;;;;;;4.68;2.42;;;;;;;;;;4882728;29;20044;-85
2021/10/27 06:31:46;;;;;;;8.40;2.75;;;;;;;;;;4891273;29;20037;-90
2021/10/27 06:34:35;;;;;;;6.55;2.03;;;;;;;;;;4883020;29;20508;-87
2021/10/27 06:37:18;;;;;;;6.50;2.22;;;;;;;;;;4883532;29;20032;-87
2021/10/27 06:47:58;;;;;;;5.57;1.67;;;;;;;;;;4893383;29;20044;-86
2021/10/27 06:50:24;;;;;;;2.30;1.95;;;;;;;;;;4880712;29;20049;-86
2021/10/27 06:52:50;;;;;;;4.47;1.88;;;;;;;;;;4881476;29;20411;-87
2021/10/27 06:55:16;;;;;;;1.75;1.30;;;;;;;;;;4881966;29;20413;-87
2021/10/27 06:57:43;;;;;;;3.58;1.92;;;;;;;;;;4880554;29;20024;-87
2021/10/27 07:00:33;;;;;;;2.50;1.30;;;;;;;;;;4893409;29;20425;-87
2021/10/27 07:03:14;;;;;;;3.75;2.08;;;;;;;;;;4858334;29;20596;-85
2021/10/27 07:16:55;;;;;;;4.05;1.85;;;;;;;;;;4855808;29;20045;-86
2021/10/27 07:19:21;;;;;;;3.00;2.00;;;;;;;;;;4851941;29;20704;-86
2021/10/27 07:21:47;;;;;;;8.27;3.20;;;;;;;;;;4842332;29;20133;-87
2021/10/27 07:24:15;;;;;;;8.70;3.15;;;;;;;;;;4854456;29;20048;-87
2021/10/27 07:26:41;;;;;;;;;;;;;;;;;;4841875;29;20041;-85
2021/10/27 07:29:07;;;;;;;3.33;1.88;;;;;;;;;;4857203;29;19919;-86
2021/10/27 07:31:34;;;;;;;3.83;2.22;;;;;;;;;;4855488;29;20022;-86
2021/10/27 07:34:08;;;;;;;3.30;1.90;;;;;;;;;;4850292;29;20124;-86
2021/10/27 07:42:10;;;;;;;6.05;3.75;;;;;;;;;;4794264;29;20124;-86
2021/10/27 07:44:36;;;;;;;4.95;2.47;;;;;;;;;;4796636;29;20050;-87
2021/10/27 07:47:02;;;;;;;6.32;3.05;;;;;;;;;;4796910;29;20034;-86
2021/10/27 07:49:28;;;;;;;5.28;2.80;;;;;;;;;;4822861;29;20034;-87
2021/10/27 07:51:54;;;;;;;4.47;2.83;;;;;;;;;;4821906;29;20069;-87
2021/10/27 07:54:20;;;;;;;11.63;4.00;;;;;;;;;;4814343;29;20046;-87
2021/10/27 07:56:47;;;;;;;18.42;5.25;;;;;;;;;;4820388;29;20053;-87
2021/10/27 07:59:15;;;;;;;9.27;4.18;;;;;;;;;;4824647;29;20594;-86
2021/10/27 08:01:41;;;;;;;;;;;;;;;;;;4823780;29;20431;-86
2021/10/27 08:04:07;;;;;;;4.88;2.53;;;;;;;;;;4808476;29;19938;-86
2021/10/27 08:06:33;;;;;;;6.80;2.72;;;;;;;;;;4815432;29;20039;-86
2021/10/27 08:08:59;;;;;;;8.60;2.75;;;;;;;;;;4816682;29;20058;-87
2021/10/27 08:11:25;;;;;;;8.38;3.10;;;;;;;;;;4815101;29;20401;-86
2021/10/27 08:13:52;;;;;;;12.32;3.30;;;;;;;;;;4814722;29;20108;-86
2021/10/27 08:16:19;;;;;;;6.05;2.90;;;;;;;;;;4853082;29;20052;-87
2021/10/27 08:18:45;;;;;;;3.22;2.17;;;;;;;;;;4891654;29;20546;-86
2021/10/27 08:21:11;;;;;;;4.75;1.90;;;;;;;;;;4875639;29;20132;-87
2021/10/27 08:23:40;;;;;;;5.43;2.90;;;;;;;;;;4878587;29;20539;-86
2021/10/27 08:26:09;;;;;;;4.55;2.38;;;;;;;;;;4879428;29;20041;-86
2021/10/27 08:28:41;;;;;;;4.53;2.65;;;;;;;;;;4885258;29;20029;-86
2021/10/27 08:34:00;;;;;;;4.97;2.60;;;;;;;;;;4878972;29;20119;-86
2021/10/27 08:36:27;;;;;;;7.57;3.45;;;;;;;;;;4877065;29;20068;-85
2021/10/27 08:38:53;;;;;;;6.38;3.08;;;12.80;73.90;;;;;;4896380;29;20051;-86
2021/10/27 08:41:20;;;;;;;6.32;3.00;;;;;;;;;;4891812;29;20124;-87
2021/10/27 08:43:47;;;;;;;8.82;4.00;;;;;;;;;;4888042;29;20490;-85
2021/10/27 08:46:13;;;;;;;10.25;5.13;;;;;;;;;;4891993;29;20028;-88
2021/10/27 08:48:43;;;;;;;5.47;3.47;;;;;;;;;;4887801;29;20640;-88
2021/10/27 08:51:12;;;;;;;6.85;2.83;;;;;;;;;;4891356;29;20041;-88
2021/10/27 08:53:38;;;;;;;8.75;4.50;;;;;;;;;;4892791;29;20386;-87
2021/10/27 08:56:06;;;;;;;14.38;6.65;;;;;;;;;;4891311;29;20123;-87
2021/10/27 08:58:42;;;;;;;13.52;5.00;;;;;;;;;;4887994;29;20056;-88
2021/10/27 09:01:19;;;;;;;14.95;3.85;;;;;;;;;;4895978;29;20037;-86
2021/10/27 09:04:45;;;;;;;4.88;2.33;;;;;;;;;;4895712;29;20028;-87
2021/10/27 09:07:04;;;;;;;8.75;3.72;;;;;;;;;;4875716;29;20036;-87
2021/10/27 09:34:59;;;;;;;10.68;4.18;;;;;;;;;;4819038;29;20087;-88
2021/10/27 09:42:54;;;;;;;6.70;3.33;;;;;;;;;;4821850;29;20141;-86
2021/10/27 10:05:17;;;;;;;6.60;3.38;;;;;;;;;;4887828;29;20108;-86
2021/10/27 10:07:44;;;;;;;4.05;2.05;;;;;;;;;;4875471;29;20422;-86
2021/10/27 10:10:11;;;;;;;4.70;2.65;;;;;;;;;;4892915;29;20033;-90
2021/10/27 10:12:56;;;;;;;4.18;3.30;;;;;;;;;;4876288;29;20115;-87
2021/10/27 10:15:37;;;;;;;5.45;2.78;;;;;;;;;;4877702;29;20068;-88
2021/10/27 10:18:03;;;;;;;3.25;2.25;;;;;;;;;;4894743;29;20076;-87
2021/10/27 10:20:29;;;;;;;3.50;2.38;;;;;;;;;;4881106;29;20029;-86
2021/10/27 10:22:55;;;;;;;4.88;2.17;;;;;;;;;;4880468;29;20426;-86
2021/10/27 10:25:21;;;;;;;3.40;2.10;;;;;;;;;;4881443;29;20048;-86
2021/10/27 10:27:48;;;;;;;5.60;2.80;;;;;;;;;;4875263;29;20028;-85
2021/10/27 10:30:26;;;;;;;5.40;1.88;;;;;;;;;;4877870;29;20036;-86
2021/10/27 10:33:06;;;;;;;6.97;2.20;;;;;;;;;;4893653;29;20561;-85
2021/10/27 10:36:09;;;;;;;5.55;2.70;;;17.60;59.10;;;;;;4880430;29;20051;-85
2021/10/27 10:38:47;;;;;;;4.68;2.75;;;;;;;;;;4891471;29;20637;-86
2021/10/27 10:58:38;;;;;;;2.78;1.70;;;;;;;;;;4832053;29;20557;-85
2021/10/27 11:23:40;;;;;;;1.90;1.67;;;;;;;;;;4805339;29;20061;-86
2021/10/27 11:40:39;;;;;;;5.43;1.55;;;;;;;;;;4815892;29;20050;-87
2021/10/27 11:43:18;;;;;;;3.88;1.20;;;;;;;;;;4813862;29;20039;-88
2021/10/27 11:48:24;;;;;;;5.07;1.10;;;;;;;;;;4873378;29;20037;-87
2021/10/27 11:50:50;;;;;;;7.10;2.08;;;;;;;;;;4875996;29;20541;-87
2021/10/27 11:53:23;;;;;;;3.05;1.75;;;18.20;54.80;;;;;;4888594;29;20116;-85
2021/10/27 11:55:49;;;;;;;3.13;1.52;;;;;;;;;;4885385;29;20414;-87
2021/10/27 11:58:15;;;;;;;4.47;1.73;;;;;;;;;;4872903;29;20052;-87
2021/10/27 12:00:43;;;;;;;2.80;1.33;;;;;;;;;;4885686;29;20794;-88
2021/10/27 12:03:15;;;;;;;1.60;1.45;;;;;;;;;;4890494;29;20020;-87
2021/10/27 12:06:03;;;;;;;3.08;1.10;;;18.40;54.70;;;;;;4888101;29;20047;-88
2021/10/27 12:13:48;;;;;;;2.35;1.35;;;;;;;;;;4895875;29;20402;-85
2021/10/27 12:18:56;;;;;;;2.30;0.90;;;;;;;;;;4887289;29;20186;-87
2021/10/27 12:21:24;;;;;;;1.25;0.80;;;;;;;;;;4892664;29;20036;-85
2021/10/27 12:23:53;;;;;;;1.55;0.82;;;;;;;;;;4896513;29;20494;-85
2021/10/27 12:26:22;;;;;;;1.27;0.90;;;;;;;;;;4893740;29;20047;-86
2021/10/27 12:28:52;;;;;;;0.68;0.57;;;;;;;;;;4890814;29;20032;-87
2021/10/27 12:31:22;;;;;;;1.13;0.70;;;;;;;;;;4892462;29;20570;-84
2021/10/27 12:33:49;;;;;;;2.33;1.10;;;;;;;;;;4894924;29;20036;-86
2021/10/27 12:36:18;;;;;;;1.15;0.73;;;;;;;;;;4878872;29;20076;-87
2021/10/27 12:39:08;;;;;;;8.10;1.63;;;17.90;56.50;;;;;;4894758;29;20661;-85
2021/10/27 12:41:35;;;;;;;1.35;0.95;;;;;;;;;;4895233;29;20048;-86
2021/10/27 12:44:16;;;;;;;2.78;0.90;;;;;;;;;;4893303;29;20044;-85
2021/10/27 12:46:42;;;;;;;0.98;0.55;;;;;;;;;;4895105;29;20029;-87
2021/10/27 12:49:17;;;;;;;2.53;0.73;;;;;;;;;;4894740;29;20517;-86
2021/10/27 12:51:43;;;;;;;0.73;0.57;;;;;;;;;;4893062;29;20100;-86
2021/10/27 12:54:09;;;;;;;1.58;0.85;;;;;;;;;;4906312;29;20056;-86
2021/10/27 12:56:35;;;;;;;2.03;1.02;;;;;;;;;;4895460;29;20060;-85
2021/10/27 12:59:04;;;;;;;2.42;0.80;;;17.70;58.30;;;;;;4892659;29;20520;-85
2021/10/27 13:01:49;;;;;;;3.30;0.90;;;;;;;;;;4890293;29;20028;-85
2021/10/27 13:07:18;;;;;;;4.50;1.00;;;;;;;;;;4882888;29;20045;-86
2021/10/27 13:15:11;;;;;;;3.53;2.05;;;;;;;;;;4893846;29;20045;-87
2021/10/27 13:17:59;;;;;;;1.33;1.10;;;;;;;;;;4894743;29;20031;-88
2021/10/27 13:20:47;;;;;;;6.35;1.70;;;;;;;;;;4894290;29;20036;-86
2021/10/27 13:23:40;;;;;;;6.35;1.30;;;;;;;;;;4893201;29;20028;-87
2021/10/27 13:29:29;;;;;;;2.30;1.08;;;;;;;;;;4889733;29;20119;-86
2021/10/27 13:31:50;;;;;;;3.33;1.30;;;;;;;;;;4893992;29;20033;-86
2021/10/27 13:34:16;;;;;;;1.55;0.77;;;;;;;;;;4892988;29;20127;-85
2021/10/27 13:36:42;;;;;;;4.07;1.23;;;;;;;;;;4880669;29;20076;-86
2021/10/27 13:39:09;;;;;;;1.77;1.35;;;;;;;;;;4894436;29;20028;-85
2021/10/27 13:41:36;;;;;;;1.95;0.93;;;;;;;;;;4889466;29;20116;-85
2021/10/27 13:44:09;;;;;;;5.25;1.02;;;;;;;;;;4894165;29;20092;-85
2021/10/27 13:49:24;;;;;;;2.85;2.13;;;;;;;;;;4889940;29;20036;-85
2021/10/27 14:08:33;;;;;;;1.40;0.88;;;;;;;;;;4888687;29;20586;-85
2021/10/27 14:11:08;;;;;;;2.35;1.30;;;;;;;;;;4886494;29;20044;-86
2021/10/27 14:13:46;;;;;;;4.55;1.75;;;;;;;;;;4886611;29;20043;-81
2021/10/27 15:20:33;;;;;;;8.85;3.03;;;;;;;;;;4815210;29;20052;-86
2021/10/27 15:41:16;;;;;;;5.70;3.15;;;;;;;;;;4833167;29;20600;-87
2021/10/27 15:44:08;;;;;;;4.22;3.05;;;;;;;;;;4838359;29;20401;-86
2021/10/27 15:52:07;;;;;;;4.72;3.25;;;;;;;;;;4842960;29;20506;-85
2021/10/27 15:54:33;;;;;;;6.00;2.60;;;;;;;;;;4833932;29;20050;-85
2021/10/27 15:57:00;;;;;;;4.32;2.92;;;;;;;;;;4831115;29;20096;-87
2021/10/27 15:59:26;;;;;;;4.03;3.40;;;;;;;;;;4831280;29;20444;-86
2021/10/27 16:01:52;;;;;;;4.93;2.88;;;;;;;;;;4833216;29;20041;-86
2021/10/27 16:04:18;;;;;;;4.50;2.10;;;;;;;;;;4832979;29;20036;-88
2021/10/27 16:06:51;;;;;;;3.60;2.25;;;;;;;;;;4831226;29;20470;-85
2021/10/27 16:09:17;;;;;;;3.88;2.22;;;;;;;;;;4838961;29;20093;-85
2021/10/27 16:11:43;;;;;;;5.57;3.08;;;;;;;;;;4839248;29;20052;-85
2021/10/27 16:14:09;;;;;;;3.95;2.85;;;;;;;;;;4889973;29;20484;-86
2021/10/27 16:16:35;;;;;;;6.47;2.33;;;;;;;;;;4884792;29;20037;-86
2021/10/27 16:19:04;;;;;;;3.60;1.90;;;;;;;;;;4889038;29;20032;-86
2021/10/27 16:21:30;;;;;;;6.22;2.75;;;;;;;;;;4875496;29;20558;-86
2021/10/27 16:23:57;;;;;;;6.28;3.58;;;15.20;68.40;;;;;;4878858;29;20761;-86
2021/10/27 16:26:24;;;;;;;7.60;4.32;;;;;;;;;;4887742;29;20040;-86
2021/10/27 16:28:50;;;;;;;7.43;3.42;;;;;;;;;;4885351;29;20044;-86
2021/10/27 16:31:16;;;;;;;8.48;5.63;;;;;;;;;;4879972;29;20490;-86
2021/10/27 16:33:45;;;;;;;6.25;3.00;;;;;;;;;;4891835;29;20029;-86
2021/10/27 16:36:12;;;;;;;6.32;3.10;;;;;;;;;;4882129;29;20041;-86
2021/10/27 16:38:38;;;;;;;10.90;4.55;;;;;;;;;;4891251;29;20029;-86
2021/10/27 16:41:04;;;;;;;5.50;3.00;;;;;;;;;;4884286;29;20072;-86
2021/10/27 16:43:30;;;;;;;5.07;3.10;;;;;;;;;;4885012;29;20505;-85
2021/10/27 16:45:56;;;;;;;14.07;3.33;;;;;;;;;;4878772;29;20087;-85
2021/10/27 16:48:25;;;;;;;9.35;3.60;;;;;;;;;;4875706;29;20033;-85
2021/10/27 16:50:51;;;;;;;4.10;2.80;;;;;;;;;;4870502;29;20550;-86
2021/10/27 16:53:23;;;;;;;7.82;4.40;;;;;;;;;;4878290;29;20056;-85
2021/10/27 16:55:49;;;;;;;3.90;3.13;;;;;;;;;;4880637;29;20044;-84
2021/10/27 16:58:16;;;;;;;6.63;3.63;;;;;;;;;;4885847;29;20028;-85
2021/10/27 17:00:42;;;;;;;7.25;3.35;;;;;;;;;;4892383;29;20127;-85
2021/10/27 17:03:08;;;;;;;7.53;4.40;;;;;;;;;;4877595;29;20028;-86
2021/10/27 17:05:35;;;;;;;9.57;4.30;;;;;;;;;;4876373;29;20080;-84
2021/10/27 17:08:01;;;;;;;8.00;4.78;;;;;;;;;;4886460;29;20041;-85
2021/10/27 17:10:27;;;;;;;15.88;6.75;;;;;;;;;;4881412;29;20041;-84
2021/10/27 17:12:53;;;;;;;12.38;6.72;;;;;;;;;;4880710;29;20032;-84
2021/10/27 17:15:19;;;;;;;10.15;5.07;;;;;;;;;;4878351;29;20123;-86
2021/10/27 17:17:46;;;;;;;14.13;5.50;;;;;;;;;;4876457;29;20116;-84
2021/10/27 17:20:14;;;;;;;6.03;3.63;;;;;;;;;;4884744;29;20048;-85
2021/10/27 17:22:43;;;;;;;9.07;4.97;;;13.70;72.50;;;;;;4888135;29;20029;-84
2021/10/27 17:25:09;;;;;;;8.70;4.50;;;;;;;;;;4881397;29;20040;-85
2021/10/27 17:27:41;;;;;;;9.68;5.22;;;;;;;;;;4876896;29;20033;-85
2021/10/27 17:30:12;;;;;;;7.65;4.72;;;;;;;;;;4890885;29;20533;-85
2021/10/27 17:32:39;;;;;;;10.55;5.25;;;;;;;;;;4874634;29;20029;-85
2021/10/27 17:35:08;;;;;;;9.32;5.00;;;;;;;;;;4889366;29;20048;-85
2021/10/27 17:37:34;;;;;;;17.90;4.40;;;;;;;;;;4891771;29;20032;-86
2021/10/27 17:40:08;;;;;;;11.73;5.13;;;;;;;;;;4890343;29;20033;-83
2021/10/27 17:42:34;;;;;;;10.98;4.30;;;;;;;;;;4891073;29;20048;-84
2021/10/27 17:45:00;;;;;;;8.25;4.65;;;;;;;;;;4889752;29;20111;-86
2021/10/27 17:47:32;;;;;;;9.00;4.95;;;;;;;;;;4888947;29;20028;-85
2021/10/27 17:52:34;;;;;;;7.82;4.38;;;;;;;;;;4886060;29;20506;-84
2021/10/27 18:00:17;;;;;;;7.72;4.47;;;;;;;;;;4890327;29;20041;-84
2021/10/27 18:02:44;;;;;;;7.22;5.20;;;;;;;;;;4875686;29;20107;-85
2021/10/27 18:05:11;;;;;;;9.80;5.03;;;;;;;;;;4885069;29;20117;-84
2021/10/27 18:07:37;;;;;;;9.32;5.85;;;;;;;;;;4882816;29;20120;-85
2021/10/27 18:10:05;;;;;;;9.48;5.25;;;;;;;;;;4882907;29;20033;-85
2021/10/27 18:12:32;;;;;;;11.73;5.63;;;;;;;;;;4894072;29;20088;-86
2021/10/27 18:14:59;;;;;;;9.68;5.78;;;;;;;;;;4893977;29;20047;-85
2021/10/27 18:17:27;;;;;;;11.00;6.07;;;;;;;;;;4883748;29;20021;-84
2021/10/27 18:20:10;;;;;;;11.13;5.35;;;;;;;;;;4888419;29;20056;-85
2021/10/27 18:28:12;;;;;;;10.70;7.13;;;;;;;;;;4893072;29;20125;-83
2021/10/27 18:38:56;;;;;;;19.90;7.47;;;;;;;;;;4890661;29;20627;-85
2021/10/27 18:42:11;;;;;;;11.77;6.75;;;;;;;;;;4891389;29;20035;-85
2021/10/27 18:44:09;;;;;;;10.20;6.18;;;;;;;;;;4880784;29;20032;-84
2021/10/27 18:46:35;;;;;;;14.05;7.05;;;;;;;;;;4892233;29;20483;-85
2021/10/27 18:49:01;;;;;;;11.60;6.85;;;;;;;;;;4889348;29;20036;-84
2021/10/27 18:51:34;;;;;;;15.63;5.90;;;;;;;;;;4890377;29;20073;-84
2021/10/27 18:56:59;;;;;;;10.90;6.25;;;;;;;;;;4888606;29;20124;-84
2021/10/27 19:02:25;;;;;;;12.98;7.07;;;;;;;;;;4871582;29;20037;-85
2021/10/27 19:10:38;;;;;;;12.30;6.10;;;;;;;;;;4887127;29;20039;-84
2021/10/27 19:15:43;;;;;;;12.75;6.75;;;;;;;;;;4877806;29;20111;-85
2021/10/27 19:18:09;;;;;;;9.88;6.80;;;;;;;;;;4882965;29;20483;-86
2021/10/27 19:20:35;;;;;;;10.88;6.35;;;;;;;;;;4875090;29;20131;-86
2021/10/27 19:23:02;;;;;;;11.43;7.30;;;;;;;;;;4886876;29;20068;-87
2021/10/27 19:28:03;;;;;;;10.43;6.90;;;;;;;;;;4893552;29;20081;-86
2021/10/27 19:33:31;;;;;;;16.77;7.40;;;;;;;;;;4879931;29;20041;-86
2021/10/27 20:49:37;;;;;;;12.15;6.53;;;;;;;;;;4849096;29;20052;-85
2021/10/27 20:54:48;;;;;;;15.35;7.15;;;;;;;;;;4857553;29;20053;-85
2021/10/27 20:57:27;;;;;;;9.95;6.45;;;;;;;;;;4857595;29;20030;-86
2021/10/27 21:13:15;;;;;;;17.95;8.60;;;;;;;;;;4847622;29;20049;-86
2021/10/27 21:15:41;;;;;;;18.27;8.45;;;;;;;;;;4856740;29;20049;-86
2021/10/27 21:18:07;;;;;;;19.73;8.15;;;;;;;;;;4841458;29;20033;-86
2021/10/27 21:20:34;;;;;;;14.82;7.93;;;;;;;;;;4856864;29;20042;-85
2021/10/27 21:22:59;;;;;;;19.88;6.88;;;;;;;;;;4856827;29;20452;-85
2021/10/27 21:25:26;;;;;;;23.35;10.38;;;;;;;;;;4852487;29;20042;-86